sensor_id;sensor_type;location;lat;lon;timestamp;temperature;humidity
19586;DHT22;9939;49.246;9.106;2023-05-16T00:00:41;13.20;99.90
19586;DHT22;9939;49.246;9.106;2023-05-16T00:03:08;13.20;99.90
19586;DHT22;9939;49.246;9.106;2023-05-16T00:05:38;13.10;99.90
19586;DHT22;9939;49.246;9.106;2023-05-16T00:08:04;13.10;99.90
19586;DHT22;9939;49.246;9.106;2023-05-16T00:10:32;12.90;99.90
19586;DHT22;9939;49.246;9.106;2023-05-16T00:12:58;12.90;99.90
19586;DHT22;9939;49.246;9.106;2023-05-16T00:15:28;12.90;99.90
19586;DHT22;9939;49.246;9.106;2023-05-16T00:17:55;12.70;99.90
19586;DHT22;9939;49.246;9.106;2023-05-16T00:20:25;12.80;99.90
19586;DHT22;9939;49.246;9.106;2023-05-16T00:22:54;12.90;99.90
19586;DHT22;9939;49.246;9.106;2023-05-16T00:25:21;12.90;99.90
19586;DHT22;9939;49.246;9.106;2023-05-16T00:27:48;12.80;99.90
19586;DHT22;9939;49.246;9.106;2023-05-16T00:30:16;12.90;99.90
19586;DHT22;9939;49.246;9.106;2023-05-16T00:32:43;12.80;99.90
19586;DHT22;9939;49.246;9.106;2023-05-16T00:35:10;12.70;99.90
19586;DHT22;9939;49.246;9.106;2023-05-16T00:37:38;12.60;99.90
19586;DHT22;9939;49.246;9.106;2023-05-16T00:40:05;12.60;99.90
19586;DHT22;9939;49.246;9.106;2023-05-16T00:42:34;12.70;99.90
19586;DHT22;9939;49.246;9.106;2023-05-16T00:45:03;12.70;99.90
19586;DHT22;9939;49.246;9.106;2023-05-16T00:47:30;12.80;99.90
19586;DHT22;9939;49.246;9.106;2023-05-16T00:49:57;12.90;99.90
19586;DHT22;9939;49.246;9.106;2023-05-16T00:52:24;12.70;99.90
19586;DHT22;9939;49.246;9.106;2023-05-16T00:54:51;12.70;99.90
19586;DHT22;9939;49.246;9.106;2023-05-16T00:57:18;12.80;99.90
19586;DHT22;9939;49.246;9.106;2023-05-16T00:59:45;12.80;99.90
19586;DHT22;9939;49.246;9.106;2023-05-16T01:02:13;12.80;99.90
19586;DHT22;9939;49.246;9.106;2023-05-16T01:04:40;12.70;99.90
19586;DHT22;9939;49.246;9.106;2023-05-16T01:07:07;12.70;99.90
19586;DHT22;9939;49.246;9.106;2023-05-16T01:09:34;12.80;99.90
19586;DHT22;9939;49.246;9.106;2023-05-16T01:12:19;12.80;99.90
19586;DHT22;9939;49.246;9.106;2023-05-16T01:17:33;12.90;99.90
19586;DHT22;9939;49.246;9.106;2023-05-16T01:22:45;12.70;99.90
19586;DHT22;9939;49.246;9.106;2023-05-16T01:27:47;12.80;99.90
19586;DHT22;9939;49.246;9.106;2023-05-16T01:30:15;12.80;99.90
19586;DHT22;9939;49.246;9.106;2023-05-16T01:32:43;12.70;99.90
19586;DHT22;9939;49.246;9.106;2023-05-16T01:35:11;12.60;99.90
19586;DHT22;9939;49.246;9.106;2023-05-16T01:37:44;12.50;99.90
19586;DHT22;9939;49.246;9.106;2023-05-16T01:40:15;12.50;99.90
19586;DHT22;9939;49.246;9.106;2023-05-16T01:42:44;12.60;99.90
19586;DHT22;9939;49.246;9.106;2023-05-16T01:45:25;12.70;99.90
19586;DHT22;9939;49.246;9.106;2023-05-16T01:47:59;12.60;99.90
19586;DHT22;9939;49.246;9.106;2023-05-16T01:50:31;12.70;99.90
19586;DHT22;9939;49.246;9.106;2023-05-16T01:52:59;12.70;99.90
19586;DHT22;9939;49.246;9.106;2023-05-16T01:55:43;12.60;99.90
19586;DHT22;9939;49.246;9.106;2023-05-16T01:58:12;12.40;99.90
19586;DHT22;9939;49.246;9.106;2023-05-16T02:00:41;12.30;99.90
19586;DHT22;9939;49.246;9.106;2023-05-16T02:03:08;12.20;99.90
19586;DHT22;9939;49.246;9.106;2023-05-16T02:05:35;12.20;99.90
19586;DHT22;9939;49.246;9.106;2023-05-16T02:08:02;12.20;99.90
19586;DHT22;9939;49.246;9.106;2023-05-16T02:10:29;12.10;99.90
19586;DHT22;9939;49.246;9.106;2023-05-16T02:12:58;12.20;99.90
19586;DHT22;9939;49.246;9.106;2023-05-16T02:15:25;12.20;99.90
19586;DHT22;9939;49.246;9.106;2023-05-16T02:17:53;12.20;99.90
19586;DHT22;9939;49.246;9.106;2023-05-16T02:20:20;12.20;99.90
19586;DHT22;9939;49.246;9.106;2023-05-16T02:22:47;12.10;99.90
19586;DHT22;9939;49.246;9.106;2023-05-16T02:25:15;12.00;99.90
19586;DHT22;9939;49.246;9.106;2023-05-16T02:27:42;12.10;99.90
19586;DHT22;9939;49.246;9.106;2023-05-16T02:30:09;11.90;99.90
19586;DHT22;9939;49.246;9.106;2023-05-16T02:32:40;11.80;99.90
19586;DHT22;9939;49.246;9.106;2023-05-16T02:35:10;11.80;99.90
19586;DHT22;9939;49.246;9.106;2023-05-16T02:37:38;12.10;99.90
19586;DHT22;9939;49.246;9.106;2023-05-16T02:40:05;12.00;99.90
19586;DHT22;9939;49.246;9.106;2023-05-16T02:42:35;12.20;99.90
19586;DHT22;9939;49.246;9.106;2023-05-16T02:45:02;12.20;99.90
19586;DHT22;9939;49.246;9.106;2023-05-16T02:47:29;12.10;99.90
19586;DHT22;9939;49.246;9.106;2023-05-16T02:49:57;12.00;99.90
19586;DHT22;9939;49.246;9.106;2023-05-16T02:52:23;12.00;99.90
19586;DHT22;9939;49.246;9.106;2023-05-16T02:54:50;12.00;99.90
19586;DHT22;9939;49.246;9.106;2023-05-16T02:57:37;12.20;99.90
19586;DHT22;9939;49.246;9.106;2023-05-16T03:00:05;12.10;99.90
19586;DHT22;9939;49.246;9.106;2023-05-16T03:02:32;12.10;99.90
19586;DHT22;9939;49.246;9.106;2023-05-16T03:04:59;12.20;99.90
19586;DHT22;9939;49.246;9.106;2023-05-16T03:07:26;12.30;99.90
19586;DHT22;9939;49.246;9.106;2023-05-16T03:09:53;12.20;99.90
19586;DHT22;9939;49.246;9.106;2023-05-16T03:12:20;12.10;99.90
19586;DHT22;9939;49.246;9.106;2023-05-16T03:14:47;12.20;99.90
19586;DHT22;9939;49.246;9.106;2023-05-16T03:17:14;12.10;99.90
19586;DHT22;9939;49.246;9.106;2023-05-16T03:19:41;12.10;99.90
19586;DHT22;9939;49.246;9.106;2023-05-16T03:22:08;12.10;99.90
19586;DHT22;9939;49.246;9.106;2023-05-16T03:24:35;12.10;99.90
19586;DHT22;9939;49.246;9.106;2023-05-16T03:27:02;12.20;99.90
19586;DHT22;9939;49.246;9.106;2023-05-16T03:29:30;12.50;99.90
19586;DHT22;9939;49.246;9.106;2023-05-16T03:31:57;12.60;99.90
19586;DHT22;9939;49.246;9.106;2023-05-16T03:34:24;12.70;99.90
19586;DHT22;9939;49.246;9.106;2023-05-16T03:36:51;12.50;99.90
19586;DHT22;9939;49.246;9.106;2023-05-16T03:39:18;12.60;99.90
19586;DHT22;9939;49.246;9.106;2023-05-16T03:41:45;12.50;99.90
19586;DHT22;9939;49.246;9.106;2023-05-16T03:44:12;12.40;99.90
19586;DHT22;9939;49.246;9.106;2023-05-16T03:46:39;12.50;99.90
19586;DHT22;9939;49.246;9.106;2023-05-16T03:49:06;12.60;99.90
19586;DHT22;9939;49.246;9.106;2023-05-16T03:51:33;12.80;99.90
19586;DHT22;9939;49.246;9.106;2023-05-16T03:54:00;12.80;99.90
19586;DHT22;9939;49.246;9.106;2023-05-16T03:56:27;12.90;99.90
19586;DHT22;9939;49.246;9.106;2023-05-16T03:58:54;12.90;99.90
19586;DHT22;9939;49.246;9.106;2023-05-16T04:01:21;12.70;99.90
19586;DHT22;9939;49.246;9.106;2023-05-16T04:03:48;12.60;99.90
19586;DHT22;9939;49.246;9.106;2023-05-16T04:06:16;12.70;99.90
19586;DHT22;9939;49.246;9.106;2023-05-16T04:08:43;12.60;99.90
19586;DHT22;9939;49.246;9.106;2023-05-16T04:11:10;12.60;99.90
19586;DHT22;9939;49.246;9.106;2023-05-16T04:13:37;12.90;99.90
19586;DHT22;9939;49.246;9.106;2023-05-16T04:16:04;12.90;99.90
19586;DHT22;9939;49.246;9.106;2023-05-16T04:18:32;12.80;99.90
19586;DHT22;9939;49.246;9.106;2023-05-16T04:20:59;12.80;99.90
19586;DHT22;9939;49.246;9.106;2023-05-16T04:23:25;12.90;99.90
19586;DHT22;9939;49.246;9.106;2023-05-16T04:25:52;12.80;99.90
19586;DHT22;9939;49.246;9.106;2023-05-16T04:28:20;12.80;99.90
19586;DHT22;9939;49.246;9.106;2023-05-16T04:30:47;12.90;99.90
19586;DHT22;9939;49.246;9.106;2023-05-16T04:33:15;12.80;99.90
19586;DHT22;9939;49.246;9.106;2023-05-16T04:35:42;12.80;99.90
19586;DHT22;9939;49.246;9.106;2023-05-16T04:38:09;12.90;99.90
19586;DHT22;9939;49.246;9.106;2023-05-16T04:40:37;12.80;99.90
19586;DHT22;9939;49.246;9.106;2023-05-16T04:43:04;12.90;99.90
19586;DHT22;9939;49.246;9.106;2023-05-16T04:45:32;12.80;99.90
19586;DHT22;9939;49.246;9.106;2023-05-16T04:48:03;12.70;99.90
19586;DHT22;9939;49.246;9.106;2023-05-16T04:50:29;12.60;99.90
19586;DHT22;9939;49.246;9.106;2023-05-16T04:52:57;12.60;99.90
19586;DHT22;9939;49.246;9.106;2023-05-16T04:55:23;12.60;99.90
19586;DHT22;9939;49.246;9.106;2023-05-16T04:57:51;12.60;99.90
19586;DHT22;9939;49.246;9.106;2023-05-16T05:00:18;12.50;99.90
19586;DHT22;9939;49.246;9.106;2023-05-16T05:02:45;12.60;99.90
19586;DHT22;9939;49.246;9.106;2023-05-16T05:05:12;12.40;99.90
19586;DHT22;9939;49.246;9.106;2023-05-16T05:07:39;12.40;99.90
19586;DHT22;9939;49.246;9.106;2023-05-16T05:10:06;12.30;99.90
19586;DHT22;9939;49.246;9.106;2023-05-16T05:12:34;12.30;99.90
19586;DHT22;9939;49.246;9.106;2023-05-16T05:15:01;12.30;99.90
19586;DHT22;9939;49.246;9.106;2023-05-16T05:17:28;12.30;99.90
19586;DHT22;9939;49.246;9.106;2023-05-16T05:19:55;12.30;99.90
19586;DHT22;9939;49.246;9.106;2023-05-16T05:22:22;12.20;99.90
19586;DHT22;9939;49.246;9.106;2023-05-16T05:24:49;12.10;99.90
19586;DHT22;9939;49.246;9.106;2023-05-16T05:27:17;12.10;99.90
19586;DHT22;9939;49.246;9.106;2023-05-16T05:29:44;12.10;99.90
19586;DHT22;9939;49.246;9.106;2023-05-16T05:32:11;12.10;99.90
19586;DHT22;9939;49.246;9.106;2023-05-16T05:34:38;12.00;99.90
19586;DHT22;9939;49.246;9.106;2023-05-16T05:37:05;11.80;99.90
19586;DHT22;9939;49.246;9.106;2023-05-16T05:39:32;11.80;99.90
19586;DHT22;9939;49.246;9.106;2023-05-16T05:41:59;11.80;99.90
19586;DHT22;9939;49.246;9.106;2023-05-16T05:44:29;11.70;99.90
19586;DHT22;9939;49.246;9.106;2023-05-16T05:46:56;11.70;99.90
19586;DHT22;9939;49.246;9.106;2023-05-16T05:49:24;11.60;99.90
19586;DHT22;9939;49.246;9.106;2023-05-16T05:51:52;11.70;99.90
19586;DHT22;9939;49.246;9.106;2023-05-16T05:54:19;11.70;99.90
19586;DHT22;9939;49.246;9.106;2023-05-16T05:56:47;11.60;99.90
19586;DHT22;9939;49.246;9.106;2023-05-16T05:59:14;11.60;99.90
19586;DHT22;9939;49.246;9.106;2023-05-16T06:01:41;11.50;99.90
19586;DHT22;9939;49.246;9.106;2023-05-16T06:04:09;11.50;99.90
19586;DHT22;9939;49.246;9.106;2023-05-16T06:06:37;11.60;99.90
19586;DHT22;9939;49.246;9.106;2023-05-16T06:09:05;11.60;99.90
19586;DHT22;9939;49.246;9.106;2023-05-16T06:11:32;11.60;99.90
19586;DHT22;9939;49.246;9.106;2023-05-16T06:14:00;11.60;99.90
19586;DHT22;9939;49.246;9.106;2023-05-16T06:16:26;11.70;99.90
19586;DHT22;9939;49.246;9.106;2023-05-16T06:18:53;11.70;99.90
19586;DHT22;9939;49.246;9.106;2023-05-16T06:21:21;11.60;99.90
19586;DHT22;9939;49.246;9.106;2023-05-16T06:23:47;11.70;99.90
19586;DHT22;9939;49.246;9.106;2023-05-16T06:26:15;11.60;99.90
19586;DHT22;9939;49.246;9.106;2023-05-16T06:28:42;11.70;99.90
19586;DHT22;9939;49.246;9.106;2023-05-16T06:31:09;11.60;99.90
19586;DHT22;9939;49.246;9.106;2023-05-16T06:33:36;11.70;99.90
19586;DHT22;9939;49.246;9.106;2023-05-16T06:36:03;11.60;99.90
19586;DHT22;9939;49.246;9.106;2023-05-16T06:38:30;11.60;99.90
19586;DHT22;9939;49.246;9.106;2023-05-16T06:40:57;11.60;99.90
19586;DHT22;9939;49.246;9.106;2023-05-16T06:43:24;11.50;99.90
19586;DHT22;9939;49.246;9.106;2023-05-16T06:45:51;11.50;99.90
19586;DHT22;9939;49.246;9.106;2023-05-16T06:48:18;11.60;99.90
19586;DHT22;9939;49.246;9.106;2023-05-16T06:50:48;11.50;99.90
19586;DHT22;9939;49.246;9.106;2023-05-16T06:53:17;11.60;99.90
19586;DHT22;9939;49.246;9.106;2023-05-16T06:55:45;11.70;99.90
19586;DHT22;9939;49.246;9.106;2023-05-16T06:58:12;11.70;99.90
19586;DHT22;9939;49.246;9.106;2023-05-16T07:00:40;11.80;99.90
19586;DHT22;9939;49.246;9.106;2023-05-16T07:03:07;11.90;99.90
19586;DHT22;9939;49.246;9.106;2023-05-16T07:05:34;11.90;99.90
19586;DHT22;9939;49.246;9.106;2023-05-16T07:08:01;12.00;99.90
19586;DHT22;9939;49.246;9.106;2023-05-16T07:10:30;11.90;99.90
19586;DHT22;9939;49.246;9.106;2023-05-16T07:12:57;11.90;99.90
19586;DHT22;9939;49.246;9.106;2023-05-16T07:15:24;11.90;99.90
19586;DHT22;9939;49.246;9.106;2023-05-16T07:17:51;12.00;99.90
19586;DHT22;9939;49.246;9.106;2023-05-16T07:20:18;12.10;99.90
19586;DHT22;9939;49.246;9.106;2023-05-16T07:22:45;12.20;99.90
19586;DHT22;9939;49.246;9.106;2023-05-16T07:25:12;12.30;99.90
19586;DHT22;9939;49.246;9.106;2023-05-16T07:27:41;12.40;99.90
19586;DHT22;9939;49.246;9.106;2023-05-16T07:30:11;12.50;99.90
19586;DHT22;9939;49.246;9.106;2023-05-16T07:32:38;12.60;99.90
19586;DHT22;9939;49.246;9.106;2023-05-16T07:35:06;12.70;99.90
19586;DHT22;9939;49.246;9.106;2023-05-16T07:37:33;12.90;99.90
19586;DHT22;9939;49.246;9.106;2023-05-16T07:40:00;12.90;99.90
19586;DHT22;9939;49.246;9.106;2023-05-16T07:42:27;13.10;99.90
19586;DHT22;9939;49.246;9.106;2023-05-16T07:44:54;13.40;99.90
19586;DHT22;9939;49.246;9.106;2023-05-16T07:47:21;13.50;99.90
19586;DHT22;9939;49.246;9.106;2023-05-16T07:49:48;13.50;99.90
19586;DHT22;9939;49.246;9.106;2023-05-16T07:52:15;13.50;99.90
19586;DHT22;9939;49.246;9.106;2023-05-16T07:54:43;13.40;99.90
19586;DHT22;9939;49.246;9.106;2023-05-16T07:57:12;13.60;99.90
19586;DHT22;9939;49.246;9.106;2023-05-16T07:59:40;13.50;99.90
19586;DHT22;9939;49.246;9.106;2023-05-16T08:02:07;13.50;99.90
19586;DHT22;9939;49.246;9.106;2023-05-16T08:04:35;13.50;99.90
19586;DHT22;9939;49.246;9.106;2023-05-16T08:07:02;13.70;99.90
19586;DHT22;9939;49.246;9.106;2023-05-16T08:09:29;13.70;99.90
19586;DHT22;9939;49.246;9.106;2023-05-16T08:11:56;13.70;99.90
19586;DHT22;9939;49.246;9.106;2023-05-16T08:14:31;13.70;99.90
19586;DHT22;9939;49.246;9.106;2023-05-16T08:16:58;13.70;99.90
19586;DHT22;9939;49.246;9.106;2023-05-16T08:19:26;13.60;99.90
19586;DHT22;9939;49.246;9.106;2023-05-16T08:21:55;13.90;99.90
19586;DHT22;9939;49.246;9.106;2023-05-16T08:24:22;14.00;99.90
19586;DHT22;9939;49.246;9.106;2023-05-16T08:26:49;14.00;99.90
19586;DHT22;9939;49.246;9.106;2023-05-16T08:29:16;14.10;99.90
19586;DHT22;9939;49.246;9.106;2023-05-16T08:31:43;14.00;99.90
19586;DHT22;9939;49.246;9.106;2023-05-16T08:34:10;14.20;99.90
19586;DHT22;9939;49.246;9.106;2023-05-16T08:36:37;14.40;99.90
19586;DHT22;9939;49.246;9.106;2023-05-16T08:39:04;14.40;99.90
19586;DHT22;9939;49.246;9.106;2023-05-16T08:41:31;14.60;99.90
19586;DHT22;9939;49.246;9.106;2023-05-16T08:43:59;14.50;99.90
19586;DHT22;9939;49.246;9.106;2023-05-16T08:46:27;14.70;99.90
19586;DHT22;9939;49.246;9.106;2023-05-16T08:48:56;14.70;99.90
19586;DHT22;9939;49.246;9.106;2023-05-16T08:51:24;14.70;99.90
19586;DHT22;9939;49.246;9.106;2023-05-16T08:54:11;15.20;99.90
19586;DHT22;9939;49.246;9.106;2023-05-16T08:56:42;15.60;99.90
19586;DHT22;9939;49.246;9.106;2023-05-16T08:59:10;15.60;99.90
19586;DHT22;9939;49.246;9.106;2023-05-16T09:01:38;15.60;99.90
19586;DHT22;9939;49.246;9.106;2023-05-16T09:04:06;15.50;99.90
19586;DHT22;9939;49.246;9.106;2023-05-16T09:06:34;15.30;99.90
19586;DHT22;9939;49.246;9.106;2023-05-16T09:09:01;15.10;99.90
19586;DHT22;9939;49.246;9.106;2023-05-16T09:11:28;15.30;99.90
19586;DHT22;9939;49.246;9.106;2023-05-16T09:13:55;15.30;99.90
19586;DHT22;9939;49.246;9.106;2023-05-16T09:16:22;15.30;99.90
19586;DHT22;9939;49.246;9.106;2023-05-16T09:18:53;15.60;99.90
19586;DHT22;9939;49.246;9.106;2023-05-16T09:21:28;15.50;99.90
19586;DHT22;9939;49.246;9.106;2023-05-16T09:23:55;15.40;99.90
19586;DHT22;9939;49.246;9.106;2023-05-16T09:26:22;15.10;99.90
19586;DHT22;9939;49.246;9.106;2023-05-16T09:28:52;15.00;99.90
19586;DHT22;9939;49.246;9.106;2023-05-16T09:31:19;14.70;99.90
19586;DHT22;9939;49.246;9.106;2023-05-16T09:33:47;14.10;99.90
19586;DHT22;9939;49.246;9.106;2023-05-16T09:36:17;14.10;99.90
19586;DHT22;9939;49.246;9.106;2023-05-16T09:38:45;14.20;99.90
19586;DHT22;9939;49.246;9.106;2023-05-16T09:41:12;14.50;99.90
19586;DHT22;9939;49.246;9.106;2023-05-16T09:43:39;14.40;99.90
19586;DHT22;9939;49.246;9.106;2023-05-16T09:46:07;14.10;99.90
19586;DHT22;9939;49.246;9.106;2023-05-16T09:48:34;13.70;99.90
19586;DHT22;9939;49.246;9.106;2023-05-16T09:51:02;13.50;99.90
19586;DHT22;9939;49.246;9.106;2023-05-16T09:53:31;13.40;99.90
19586;DHT22;9939;49.246;9.106;2023-05-16T09:56:20;13.10;99.90
19586;DHT22;9939;49.246;9.106;2023-05-16T09:58:47;13.20;99.90
19586;DHT22;9939;49.246;9.106;2023-05-16T10:01:17;13.40;99.90
19586;DHT22;9939;49.246;9.106;2023-05-16T10:03:45;13.50;99.90
19586;DHT22;9939;49.246;9.106;2023-05-16T10:06:12;13.60;99.90
19586;DHT22;9939;49.246;9.106;2023-05-16T10:08:40;14.00;99.90
19586;DHT22;9939;49.246;9.106;2023-05-16T10:11:08;14.50;99.90
19586;DHT22;9939;49.246;9.106;2023-05-16T10:13:35;15.00;99.90
19586;DHT22;9939;49.246;9.106;2023-05-16T10:16:07;14.50;99.90
19586;DHT22;9939;49.246;9.106;2023-05-16T10:18:35;14.40;99.90
19586;DHT22;9939;49.246;9.106;2023-05-16T10:21:04;14.70;99.90
19586;DHT22;9939;49.246;9.106;2023-05-16T10:23:35;14.60;99.90
19586;DHT22;9939;49.246;9.106;2023-05-16T10:26:03;15.20;99.90
19586;DHT22;9939;49.246;9.106;2023-05-16T10:28:31;15.70;99.90
19586;DHT22;9939;49.246;9.106;2023-05-16T10:30:58;15.90;99.90
19586;DHT22;9939;49.246;9.106;2023-05-16T10:33:29;16.20;99.90
19586;DHT22;9939;49.246;9.106;2023-05-16T10:35:56;15.80;99.90
19586;DHT22;9939;49.246;9.106;2023-05-16T10:38:24;15.60;99.90
19586;DHT22;9939;49.246;9.106;2023-05-16T10:40:52;15.20;99.90
19586;DHT22;9939;49.246;9.106;2023-05-16T10:43:24;15.10;99.90
19586;DHT22;9939;49.246;9.106;2023-05-16T10:45:55;14.80;99.90
19586;DHT22;9939;49.246;9.106;2023-05-16T10:48:33;14.40;99.90
19586;DHT22;9939;49.246;9.106;2023-05-16T10:51:01;14.40;99.90
19586;DHT22;9939;49.246;9.106;2023-05-16T11:06:24;16.90;99.90
19586;DHT22;9939;49.246;9.106;2023-05-16T11:16:53;16.50;99.90
19586;DHT22;9939;49.246;9.106;2023-05-16T11:19:55;16.40;99.90
19586;DHT22;9939;49.246;9.106;2023-05-16T11:27:28;15.30;99.90
19586;DHT22;9939;49.246;9.106;2023-05-16T11:30:14;15.00;99.90
19586;DHT22;9939;49.246;9.106;2023-05-16T11:32:42;14.60;99.90
19586;DHT22;9939;49.246;9.106;2023-05-16T11:35:11;14.60;99.90
19586;DHT22;9939;49.246;9.106;2023-05-16T11:37:40;14.90;99.90
19586;DHT22;9939;49.246;9.106;2023-05-16T11:40:08;15.40;99.90
19586;DHT22;9939;49.246;9.106;2023-05-16T11:42:41;15.50;99.90
19586;DHT22;9939;49.246;9.106;2023-05-16T11:45:09;15.90;99.90
19586;DHT22;9939;49.246;9.106;2023-05-16T11:47:38;15.40;99.90
19586;DHT22;9939;49.246;9.106;2023-05-16T11:50:06;15.80;99.90
19586;DHT22;9939;49.246;9.106;2023-05-16T11:52:34;16.00;99.90
19586;DHT22;9939;49.246;9.106;2023-05-16T11:55:02;16.70;99.90
19586;DHT22;9939;49.246;9.106;2023-05-16T11:57:30;17.60;99.90
19586;DHT22;9939;49.246;9.106;2023-05-16T12:00:31;17.80;99.90
19586;DHT22;9939;49.246;9.106;2023-05-16T12:02:53;17.70;99.90
19586;DHT22;9939;49.246;9.106;2023-05-16T12:05:20;16.90;99.90
19586;DHT22;9939;49.246;9.106;2023-05-16T12:07:51;16.80;99.90
19586;DHT22;9939;49.246;9.106;2023-05-16T12:10:21;16.90;99.90
19586;DHT22;9939;49.246;9.106;2023-05-16T12:12:49;17.40;99.90
19586;DHT22;9939;49.246;9.106;2023-05-16T12:15:18;18.10;99.90
19586;DHT22;9939;49.246;9.106;2023-05-16T12:17:45;18.30;99.90
19586;DHT22;9939;49.246;9.106;2023-05-16T12:20:13;18.50;99.90
19586;DHT22;9939;49.246;9.106;2023-05-16T12:22:42;17.50;99.90
19586;DHT22;9939;49.246;9.106;2023-05-16T12:27:46;17.50;99.90
19586;DHT22;9939;49.246;9.106;2023-05-16T12:30:15;16.60;99.90
19586;DHT22;9939;49.246;9.106;2023-05-16T12:32:42;16.60;99.90
19586;DHT22;9939;49.246;9.106;2023-05-16T12:35:10;16.40;99.90
19586;DHT22;9939;49.246;9.106;2023-05-16T12:37:38;16.20;99.90
19586;DHT22;9939;49.246;9.106;2023-05-16T12:40:06;16.30;99.90
19586;DHT22;9939;49.246;9.106;2023-05-16T12:42:35;16.10;99.90
19586;DHT22;9939;49.246;9.106;2023-05-16T12:45:02;16.30;99.90
19586;DHT22;9939;49.246;9.106;2023-05-16T12:47:34;16.70;99.90
19586;DHT22;9939;49.246;9.106;2023-05-16T12:50:07;16.90;99.90
19586;DHT22;9939;49.246;9.106;2023-05-16T12:52:34;17.70;99.90
19586;DHT22;9939;49.246;9.106;2023-05-16T12:55:01;19.50;99.90
19586;DHT22;9939;49.246;9.106;2023-05-16T12:57:28;20.00;99.90
19586;DHT22;9939;49.246;9.106;2023-05-16T12:59:55;19.80;99.90
19586;DHT22;9939;49.246;9.106;2023-05-16T13:02:22;21.10;99.90
19586;DHT22;9939;49.246;9.106;2023-05-16T13:04:49;21.10;99.90
19586;DHT22;9939;49.246;9.106;2023-05-16T13:07:16;21.30;99.90
19586;DHT22;9939;49.246;9.106;2023-05-16T13:09:44;20.60;99.90
19586;DHT22;9939;49.246;9.106;2023-05-16T13:12:11;19.60;99.90
19586;DHT22;9939;49.246;9.106;2023-05-16T13:14:39;19.30;99.90
19586;DHT22;9939;49.246;9.106;2023-05-16T13:17:09;18.60;99.90
19586;DHT22;9939;49.246;9.106;2023-05-16T13:19:37;18.80;99.90
19586;DHT22;9939;49.246;9.106;2023-05-16T13:22:04;18.00;99.90
19586;DHT22;9939;49.246;9.106;2023-05-16T13:24:31;18.10;99.90
19586;DHT22;9939;49.246;9.106;2023-05-16T13:26:59;18.70;99.90
19586;DHT22;9939;49.246;9.106;2023-05-16T13:29:26;19.40;99.90
19586;DHT22;9939;49.246;9.106;2023-05-16T13:31:53;18.60;99.90
19586;DHT22;9939;49.246;9.106;2023-05-16T13:34:20;18.70;99.90
19586;DHT22;9939;49.246;9.106;2023-05-16T13:36:47;18.60;99.90
19586;DHT22;9939;49.246;9.106;2023-05-16T13:39:20;18.90;99.90
19586;DHT22;9939;49.246;9.106;2023-05-16T13:41:47;18.90;99.90
19586;DHT22;9939;49.246;9.106;2023-05-16T13:44:16;18.80;99.90
19586;DHT22;9939;49.246;9.106;2023-05-16T13:46:44;19.10;99.90
19586;DHT22;9939;49.246;9.106;2023-05-16T13:49:11;18.80;99.90
19586;DHT22;9939;49.246;9.106;2023-05-16T13:51:38;18.30;99.90
19586;DHT22;9939;49.246;9.106;2023-05-16T13:54:05;18.30;99.90
19586;DHT22;9939;49.246;9.106;2023-05-16T13:56:32;18.30;99.90
19586;DHT22;9939;49.246;9.106;2023-05-16T13:58:59;18.30;99.90
19586;DHT22;9939;49.246;9.106;2023-05-16T14:01:32;18.60;99.90
19586;DHT22;9939;49.246;9.106;2023-05-16T14:03:59;19.70;99.90
19586;DHT22;9939;49.246;9.106;2023-05-16T14:06:26;20.30;99.90
19586;DHT22;9939;49.246;9.106;2023-05-16T14:08:54;21.10;99.90
19586;DHT22;9939;49.246;9.106;2023-05-16T14:11:21;22.00;99.90
19586;DHT22;9939;49.246;9.106;2023-05-16T14:13:55;21.60;99.90
19586;DHT22;9939;49.246;9.106;2023-05-16T14:16:22;21.70;99.90
19586;DHT22;9939;49.246;9.106;2023-05-16T14:18:49;21.90;99.90
19586;DHT22;9939;49.246;9.106;2023-05-16T14:21:17;21.40;99.90
19586;DHT22;9939;49.246;9.106;2023-05-16T14:23:44;20.90;99.90
19586;DHT22;9939;49.246;9.106;2023-05-16T14:26:11;20.90;99.90
19586;DHT22;9939;49.246;9.106;2023-05-16T14:28:38;21.70;99.90
19586;DHT22;9939;49.246;9.106;2023-05-16T14:31:05;22.20;99.90
19586;DHT22;9939;49.246;9.106;2023-05-16T14:33:32;21.80;99.90
19586;DHT22;9939;49.246;9.106;2023-05-16T14:35:59;20.30;99.90
19586;DHT22;9939;49.246;9.106;2023-05-16T14:38:26;20.70;99.90
19586;DHT22;9939;49.246;9.106;2023-05-16T14:40:53;20.30;99.90
19586;DHT22;9939;49.246;9.106;2023-05-16T14:43:20;20.30;99.90
19586;DHT22;9939;49.246;9.106;2023-05-16T14:45:47;20.30;99.90
19586;DHT22;9939;49.246;9.106;2023-05-16T14:48:14;20.20;99.90
19586;DHT22;9939;49.246;9.106;2023-05-16T14:50:42;19.40;99.90
19586;DHT22;9939;49.246;9.106;2023-05-16T14:53:09;19.70;99.90
19586;DHT22;9939;49.246;9.106;2023-05-16T14:55:36;19.80;99.90
19586;DHT22;9939;49.246;9.106;2023-05-16T14:58:04;19.20;99.90
19586;DHT22;9939;49.246;9.106;2023-05-16T15:00:31;18.70;99.90
19586;DHT22;9939;49.246;9.106;2023-05-16T15:02:58;19.60;99.90
19586;DHT22;9939;49.246;9.106;2023-05-16T15:05:25;19.50;99.90
19586;DHT22;9939;49.246;9.106;2023-05-16T15:07:54;19.90;99.90
19586;DHT22;9939;49.246;9.106;2023-05-16T15:10:22;19.90;99.90
19586;DHT22;9939;49.246;9.106;2023-05-16T15:12:49;19.80;99.90
19586;DHT22;9939;49.246;9.106;2023-05-16T15:15:16;18.70;99.90
19586;DHT22;9939;49.246;9.106;2023-05-16T15:17:43;18.70;99.90
19586;DHT22;9939;49.246;9.106;2023-05-16T15:20:10;18.20;99.90
19586;DHT22;9939;49.246;9.106;2023-05-16T15:22:38;19.30;99.90
19586;DHT22;9939;49.246;9.106;2023-05-16T15:25:06;20.90;99.90
19586;DHT22;9939;49.246;9.106;2023-05-16T15:27:33;20.90;99.90
19586;DHT22;9939;49.246;9.106;2023-05-16T15:30:00;22.10;99.90
19586;DHT22;9939;49.246;9.106;2023-05-16T15:32:27;21.90;99.90
19586;DHT22;9939;49.246;9.106;2023-05-16T15:34:54;22.10;99.90
19586;DHT22;9939;49.246;9.106;2023-05-16T15:37:21;21.40;99.90
19586;DHT22;9939;49.246;9.106;2023-05-16T15:39:48;20.90;99.90
19586;DHT22;9939;49.246;9.106;2023-05-16T15:42:15;20.60;99.90
19586;DHT22;9939;49.246;9.106;2023-05-16T15:44:44;19.80;99.90
19586;DHT22;9939;49.246;9.106;2023-05-16T15:47:11;20.60;99.90
19586;DHT22;9939;49.246;9.106;2023-05-16T15:49:38;20.50;99.90
19586;DHT22;9939;49.246;9.106;2023-05-16T15:52:05;21.90;99.90
19586;DHT22;9939;49.246;9.106;2023-05-16T15:54:33;22.10;99.90
19586;DHT22;9939;49.246;9.106;2023-05-16T15:57:00;21.90;99.90
19586;DHT22;9939;49.246;9.106;2023-05-16T15:59:26;21.80;99.90
19586;DHT22;9939;49.246;9.106;2023-05-16T16:01:53;22.70;99.90
19586;DHT22;9939;49.246;9.106;2023-05-16T16:04:20;23.80;99.90
19586;DHT22;9939;49.246;9.106;2023-05-16T16:06:49;23.40;99.90
19586;DHT22;9939;49.246;9.106;2023-05-16T16:09:16;23.90;99.10
19586;DHT22;9939;49.246;9.106;2023-05-16T16:11:43;24.50;98.10
19586;DHT22;9939;49.246;9.106;2023-05-16T16:14:10;23.30;97.10
19586;DHT22;9939;49.246;9.106;2023-05-16T16:16:37;22.80;97.20
19586;DHT22;9939;49.246;9.106;2023-05-16T16:19:06;22.20;98.60
19586;DHT22;9939;49.246;9.106;2023-05-16T16:21:34;22.50;98.20
19586;DHT22;9939;49.246;9.106;2023-05-16T16:24:01;22.40;98.40
19586;DHT22;9939;49.246;9.106;2023-05-16T16:26:28;22.10;97.60